Time;durP1;ratioP1;P1;durP2;ratioP2;P2;SDS_P1;SDS_P2;PMS_P1;PMS_P2;Temp;Humidity;BMP_temperature;BMP_pressure;BME280_temperature;BME280_humidity;BME280_pressure;Samples;Min_cycle;Max_cycle;Signal;HPM_P1;HPM_P2
2023/03/10 00:04:32;;;;;;;4.73;2.60;;;12.40;95.10;;;;;;10493477;28;20223;-83
2023/03/10 00:09:34;;;;;;;5.20;2.13;;;12.30;95.90;;;;;;10510401;28;20251;-83
2023/03/10 00:14:38;;;;;;;2.83;2.33;;;12.30;95.70;;;;;;10533346;28;20221;-83
2023/03/10 00:19:40;;;;;;;3.70;2.60;;;12.30;96.10;;;;;;10545496;28;20200;-82
2023/03/10 00:24:42;;;;;;;4.17;2.60;;;12.30;96.50;;;;;;10534363;28;20254;-84
2023/03/10 00:29:46;;;;;;;4.07;2.70;;;12.30;96.10;;;;;;10519720;28;20254;-84
2023/03/10 00:34:48;;;;;;;3.00;2.70;;;12.30;96.00;;;;;;10514484;28;20304;-84
2023/03/10 00:39:54;;;;;;;2.73;2.53;;;12.20;95.40;;;;;;10534237;28;20525;-84
2023/03/10 00:44:57;;;;;;;5.43;4.10;;;12.20;95.20;;;;;;10516188;28;20686;-84
2023/03/10 00:50:00;;;;;;;4.17;2.70;;;12.20;95.70;;;;;;10535043;28;20283;-84
2023/03/10 00:55:02;;;;;;;5.70;2.40;;;12.20;95.50;;;;;;10506103;28;20217;-84
2023/03/10 01:00:13;;;;;;;4.40;2.87;;;12.20;96.00;;;;;;10491531;28;20253;-84
2023/03/10 01:05:16;;;;;;;3.00;2.40;;;12.20;96.90;;;;;;10486699;28;20251;-84
2023/03/10 01:10:18;;;;;;;3.50;2.77;;;12.20;96.90;;;;;;10503785;28;20211;-83
2023/03/10 01:15:21;;;;;;;2.70;2.50;;;12.20;97.70;;;;;;10516914;28;20196;-83
2023/03/10 01:20:24;;;;;;;2.27;2.17;;;12.20;97.30;;;;;;10494746;28;20201;-82
2023/03/10 01:25:26;;;;;;;2.40;2.20;;;12.20;97.00;;;;;;10507628;28;20213;-82
2023/03/10 01:30:30;;;;;;;4.50;2.33;;;12.10;97.80;;;;;;10523873;28;20690;-82
2023/03/10 01:35:32;;;;;;;2.67;2.47;;;12.10;97.40;;;;;;10516714;28;20193;-83
2023/03/10 01:40:35;;;;;;;2.70;2.40;;;12.10;97.30;;;;;;10516879;28;20248;-82
2023/03/10 01:46:22;;;;;;;2.23;2.03;;;12.10;97.60;;;;;;10524951;28;20740;-82
2023/03/10 01:51:26;;;;;;;4.00;2.50;;;12.10;96.50;;;;;;10495352;28;20595;-82
2023/03/10 01:56:28;;;;;;;2.90;2.60;;;12.00;96.20;;;;;;10516675;28;20197;-82
2023/03/10 02:01:34;;;;;;;5.80;2.60;;;12.10;95.60;;;;;;10512312;28;20236;-82
2023/03/10 02:06:41;;;;;;;3.63;2.90;;;12.10;95.60;;;;;;10506017;28;20224;-82
2023/03/10 02:11:44;;;;;;;2.30;2.13;;;12.10;96.10;;;;;;10508619;28;20225;-82
2023/03/10 02:16:47;;;;;;;4.50;2.40;;;12.00;96.00;;;;;;10505741;28;20649;-83
2023/03/10 02:22:01;;;;;;;2.60;2.20;;;12.10;96.20;;;;;;10510598;28;20216;-83
2023/03/10 02:27:12;;;;;;;2.90;2.70;;;12.00;96.60;;;;;;10504647;28;20226;-84
2023/03/10 02:32:18;;;;;;;3.03;2.50;;;12.00;97.10;;;;;;10485580;28;20247;-82
2023/03/10 02:37:24;;;;;;;2.67;2.47;;;12.00;98.20;;;;;;10517722;28;20243;-82
2023/03/10 02:42:35;;;;;;;2.27;2.17;;;12.00;98.40;;;;;;10565354;22;20761;-79
2023/03/10 02:47:38;;;;;;;2.10;2.00;;;11.90;98.70;;;;;;10495348;28;20351;-79
2023/03/10 02:52:46;;;;;;;2.07;1.97;;;12.00;98.80;;;;;;10532342;28;20231;-80
2023/03/10 02:57:50;;;;;;;2.23;2.00;;;11.90;99.10;;;;;;10468537;28;20662;-79
2023/03/10 03:02:52;;;;;;;3.33;2.07;;;11.90;99.40;;;;;;10550128;28;20299;-79
2023/03/10 03:07:55;;;;;;;2.67;2.00;;;11.80;99.90;;;;;;10536519;28;20671;-79
2023/03/10 03:12:58;;;;;;;2.30;2.17;;;11.70;99.90;;;;;;10536415;28;20205;-80
2023/03/10 03:18:02;;;;;;;2.67;2.40;;;11.70;99.90;;;;;;10528549;28;20208;-79
2023/03/10 03:23:06;;;;;;;3.90;2.40;;;11.70;99.90;;;;;;10482162;28;20639;-79
2023/03/10 03:28:11;;;;;;;2.67;1.90;;;11.70;99.90;;;;;;10523042;28;20193;-79
2023/03/10 03:33:14;;;;;;;3.00;2.70;;;11.70;99.90;;;;;;10535811;28;20251;-79
2023/03/10 03:38:17;;;;;;;2.03;1.90;;;11.60;99.90;;;;;;10516840;28;20220;-79
2023/03/10 03:43:21;;;;;;;2.37;2.10;;;11.70;99.90;;;;;;10516878;28;20239;-79
2023/03/10 03:48:24;;;;;;;1.97;1.87;;;11.50;99.90;;;;;;10510678;28;20227;-79
2023/03/10 03:53:27;;;;;;;1.90;1.80;;;11.50;99.90;;;;;;10531119;28;20212;-80
2023/03/10 03:58:30;;;;;;;1.80;1.80;;;11.50;99.90;;;;;;10503042;28;20428;-79
2023/03/10 04:03:33;;;;;;;1.60;1.60;;;11.50;99.90;;;;;;10533930;28;20307;-80
2023/03/10 04:08:35;;;;;;;2.53;2.40;;;11.50;99.90;;;;;;10536051;28;20235;-80
2023/03/10 04:13:40;;;;;;;1.80;1.80;;;11.50;99.90;;;;;;10500961;28;20263;-80
2023/03/10 04:18:43;;;;;;;1.83;1.73;;;11.50;99.90;;;;;;10496768;28;20209;-79
2023/03/10 04:23:47;;;;;;;1.90;1.90;;;11.50;99.90;;;;;;10531599;28;20219;-80
2023/03/10 04:28:56;;;;;;;1.93;1.83;;;11.50;99.90;;;;;;10543495;28;20204;-79
2023/03/10 04:33:58;;;;;;;2.00;1.90;;;11.50;99.90;;;;;;10497901;28;20312;-79
2023/03/10 04:39:01;;;;;;;2.00;1.90;;;11.50;99.90;;;;;;10515246;28;20568;-79
2023/03/10 04:44:08;;;;;;;2.23;2.10;;;11.50;99.90;;;;;;10531146;28;20228;-79
2023/03/10 04:49:10;;;;;;;2.47;1.80;;;11.40;99.90;;;;;;10511163;28;20200;-79
2023/03/10 04:54:13;;;;;;;2.23;2.10;;;11.50;99.90;;;;;;10519679;28;20225;-79
2023/03/10 04:59:20;;;;;;;2.33;2.20;;;11.50;99.90;;;;;;10501691;28;20210;-79
2023/03/10 05:04:23;;;;;;;2.30;2.13;;;11.50;99.90;;;;;;10522766;28;20231;-79
2023/03/10 05:09:26;;;;;;;2.33;2.23;;;11.50;99.90;;;;;;10517768;28;20205;-79
2023/03/10 05:14:30;;;;;;;2.20;2.10;;;11.50;99.90;;;;;;10488331;28;20237;-79
2023/03/10 05:19:34;;;;;;;4.30;2.10;;;11.40;99.90;;;;;;10516164;28;20295;-80
2023/03/10 05:24:37;;;;;;;1.90;1.80;;;11.40;99.90;;;;;;10495275;28;20216;-78
2023/03/10 05:29:41;;;;;;;2.33;2.20;;;11.30;99.90;;;;;;10489124;28;20216;-80
2023/03/10 05:34:50;;;;;;;2.50;2.40;;;11.30;99.90;;;;;;10490699;28;20231;-78
2023/03/10 05:39:52;;;;;;;5.57;2.70;;;11.20;99.90;;;;;;10511175;28;20202;-78
2023/03/10 05:44:58;;;;;;;2.20;2.00;;;11.20;99.90;;;;;;10494204;28;20224;-80
2023/03/10 05:50:01;;;;;;;2.93;2.73;;;11.10;99.90;;;;;;10517742;28;20234;-80
2023/03/10 05:55:07;;;;;;;3.27;2.97;;;11.00;99.90;;;;;;10509926;28;20227;-78
2023/03/10 06:00:15;;;;;;;7.00;5.90;;;11.00;99.90;;;;;;10521869;28;20211;-80
2023/03/10 06:05:22;;;;;;;3.23;3.00;;;11.10;99.90;;;;;;10508728;28;20316;-80
2023/03/10 06:10:24;;;;;;;3.00;2.60;;;11.20;99.90;;;;;;10516825;28;20760;-80
2023/03/10 06:15:28;;;;;;;3.33;2.70;;;11.20;99.90;;;;;;10510203;28;20304;-79
2023/03/10 06:20:30;;;;;;;4.27;2.70;;;11.10;99.90;;;;;;10495965;28;20676;-80
2023/03/10 06:25:32;;;;;;;6.40;2.87;;;11.10;99.90;;;;;;10524505;28;20212;-80
2023/03/10 06:30:39;;;;;;;5.20;4.90;;;11.00;99.90;;;;;;10500092;28;20566;-80
2023/03/10 06:35:41;;;;;;;6.07;5.80;;;10.80;99.90;;;;;;10524375;28;20231;-78
2023/03/10 06:40:44;;;;;;;8.67;8.10;;;10.60;99.90;;;;;;10532083;28;20272;-78
2023/03/10 06:45:49;;;;;;;7.83;7.53;;;10.30;99.90;;;;;;10515658;28;20254;-78
2023/03/10 06:50:51;;;;;;;8.83;8.43;;;10.10;99.90;;;;;;10529851;28;20223;-79
2023/03/10 06:55:57;;;;;;;8.83;8.23;;;9.90;99.90;;;;;;10512284;28;20197;-79
2023/03/10 07:01:01;;;;;;;7.70;7.40;;;9.80;99.90;;;;;;10534340;28;20230;-79
2023/03/10 07:06:04;;;;;;;8.23;7.83;;;9.70;99.90;;;;;;10538802;28;20220;-79
2023/03/10 07:11:06;;;;;;;6.97;6.57;;;9.80;99.90;;;;;;10528252;28;20245;-80
2023/03/10 07:16:09;;;;;;;10.03;9.27;;;9.90;99.90;;;;;;10498213;28;20199;-78
2023/03/10 07:21:15;;;;;;;9.10;8.70;;;10.00;99.90;;;;;;10501542;28;20227;-79
2023/03/10 07:26:18;;;;;;;10.00;9.10;;;10.10;99.90;;;;;;10504038;28;20349;-80
2023/03/10 07:31:22;;;;;;;25.03;19.23;;;10.30;99.90;;;;;;10505467;28;20277;-79
2023/03/10 07:36:24;;;;;;;8.53;7.80;;;10.50;99.90;;;;;;10529072;28;20652;-79
2023/03/10 07:41:26;;;;;;;10.63;9.83;;;10.70;99.90;;;;;;10540392;28;20227;-79
2023/03/10 07:46:29;;;;;;;5.67;5.47;;;10.80;99.90;;;;;;10527770;28;20236;-79
2023/03/10 07:51:32;;;;;;;6.70;6.30;;;10.80;99.90;;;;;;10518526;28;20224;-81
2023/03/10 07:56:34;;;;;;;5.87;4.97;;;10.90;99.90;;;;;;10496832;28;20618;-79
2023/03/10 08:01:37;;;;;;;5.43;5.13;;;11.00;99.90;;;;;;10500619;28;20720;-79
2023/03/10 08:06:39;;;;;;;5.37;5.07;;;10.90;99.90;;;;;;10483646;28;20263;-80
2023/03/10 08:11:42;;;;;;;6.70;6.40;;;10.80;99.90;;;;;;10515019;28;20223;-80
2023/03/10 08:16:45;;;;;;;6.70;6.30;;;10.70;99.90;;;;;;10514614;28;20616;-80
2023/03/10 08:21:47;;;;;;;7.63;7.33;;;10.60;99.90;;;;;;10499602;28;20219;-80
2023/03/10 08:26:50;;;;;;;6.70;6.30;;;10.40;99.90;;;;;;10516403;28;20219;-80
2023/03/10 08:31:53;;;;;;;6.87;6.57;;;10.30;99.90;;;;;;10513432;28;20251;-80
2023/03/10 08:36:57;;;;;;;7.77;7.47;;;10.20;99.90;;;;;;10533974;28;20215;-79
2023/03/10 08:41:59;;;;;;;7.90;7.50;;;10.30;99.90;;;;;;10509609;28;20224;-79
2023/03/10 08:47:03;;;;;;;8.00;7.60;;;10.30;99.90;;;;;;10499756;28;20711;-79
2023/03/10 08:52:06;;;;;;;9.87;9.07;;;10.20;99.90;;;;;;10520760;28;20690;-80
2023/03/10 08:57:08;;;;;;;8.00;7.60;;;10.30;99.90;;;;;;10513988;28;20577;-80
2023/03/10 09:02:14;;;;;;;6.10;5.80;;;10.70;99.90;;;;;;10512229;28;20217;-80
2023/03/10 09:07:16;;;;;;;4.37;4.17;;;10.70;99.90;;;;;;10537400;28;20234;-80
2023/03/10 09:12:18;;;;;;;5.37;5.17;;;10.60;99.90;;;;;;10485065;28;20257;-79
2023/03/10 09:17:21;;;;;;;4.67;4.17;;;10.60;99.90;;;;;;10492519;28;20681;-79
2023/03/10 09:22:23;;;;;;;3.53;3.40;;;10.70;99.90;;;;;;10507725;28;20234;-80
2023/03/10 09:27:25;;;;;;;4.30;4.10;;;10.90;99.90;;;;;;10520031;28;20282;-80
2023/03/10 09:32:29;;;;;;;7.60;6.97;;;11.20;99.90;;;;;;10501383;28;20715;-80
2023/03/10 09:37:31;;;;;;;3.50;3.20;;;11.50;99.90;;;;;;10487984;28;20268;-80
2023/03/10 09:42:43;;;;;;;4.13;2.67;;;11.80;99.90;;;;;;10495730;28;20228;-80
2023/03/10 09:47:58;;;;;;;3.93;3.53;;;11.90;99.90;;;;;;10469455;28;20218;-79
2023/03/10 09:53:07;;;;;;;4.50;4.10;;;12.00;99.90;;;;;;10529791;28;20286;-80
2023/03/10 09:58:13;;;;;;;2.90;2.80;;;12.20;99.90;;;;;;10545361;28;20196;-80
2023/03/10 10:03:19;;;;;;;2.43;1.57;;;12.40;99.90;;;;;;10506177;28;20298;-80
2023/03/10 10:08:24;;;;;;;7.13;5.50;;;12.60;99.90;;;;;;10474906;28;20244;-79
2023/03/10 10:13:29;;;;;;;3.77;3.47;;;12.60;99.90;;;;;;10537000;28;20220;-80
2023/03/10 10:18:40;;;;;;;3.33;3.07;;;12.70;99.90;;;;;;10550724;28;20203;-80
2023/03/10 10:23:46;;;;;;;2.70;2.30;;;12.80;99.90;;;;;;10489957;28;20237;-80
2023/03/10 10:28:52;;;;;;;3.43;3.23;;;12.70;99.90;;;;;;10495058;28;20292;-80
2023/03/10 10:33:59;;;;;;;3.70;3.50;;;12.50;99.90;;;;;;10520542;28;20224;-80
2023/03/10 10:39:02;;;;;;;4.20;4.00;;;12.40;99.90;;;;;;10554079;28;20196;-80
2023/03/10 10:44:08;;;;;;;3.87;3.70;;;12.40;99.90;;;;;;10553106;28;20258;-80
2023/03/10 10:49:22;;;;;;;4.00;3.60;;;12.40;99.90;;;;;;10527971;28;20217;-80
2023/03/10 10:54:28;;;;;;;3.70;3.40;;;12.40;99.90;;;;;;10500835;28;20231;-80
2023/03/10 10:59:31;;;;;;;4.03;3.60;;;12.30;99.90;;;;;;10473412;28;20189;-80
2023/03/10 11:04:44;;;;;;;4.10;3.80;;;12.40;99.90;;;;;;10515606;28;20227;-80
2023/03/10 11:09:46;;;;;;;4.07;3.37;;;12.50;99.90;;;;;;10494194;28;20193;-80
2023/03/10 11:15:08;;;;;;;3.30;3.10;;;12.50;99.90;;;;;;10539119;28;20215;-80
2023/03/10 11:20:23;;;;;;;3.13;2.90;;;12.60;99.90;;;;;;10536450;28;20193;-80
2023/03/10 11:25:29;;;;;;;3.17;2.97;;;12.70;99.90;;;;;;10498701;28;20209;-78
2023/03/10 11:30:33;;;;;;;4.33;2.30;;;12.80;99.90;;;;;;10515525;28;20197;-80
2023/03/10 11:35:44;;;;;;;2.80;2.20;;;12.80;99.90;;;;;;10520487;28;20199;-79
2023/03/10 11:40:50;;;;;;;2.27;2.07;;;12.80;99.90;;;;;;10540640;28;20230;-80
2023/03/10 11:45:54;;;;;;;2.90;1.97;;;12.70;99.90;;;;;;10540509;28;20296;-81
2023/03/10 11:50:59;;;;;;;3.00;2.10;;;12.50;99.90;;;;;;10522411;28;20223;-80
2023/03/10 11:56:02;;;;;;;1.77;1.53;;;12.50;99.90;;;;;;10518755;28;20240;-80
2023/03/10 12:01:07;;;;;;;3.03;2.83;;;12.40;99.90;;;;;;10514110;28;20221;-80
2023/03/10 12:06:14;;;;;;;1.53;1.43;;;12.30;99.90;;;;;;10515967;28;20242;-80
2023/03/10 12:11:20;;;;;;;4.20;2.20;;;12.30;99.90;;;;;;10541176;28;20215;-79
2023/03/10 12:16:26;;;;;;;2.13;1.93;;;12.20;99.90;;;;;;10495350;28;20265;-79
2023/03/10 12:21:31;;;;;;;1.37;1.27;;;12.30;99.90;;;;;;10523707;28;20213;-80
2023/03/10 12:26:59;;;;;;;1.17;1.10;;;12.60;99.90;;;;;;10522278;28;20220;-80
2023/03/10 12:32:02;;;;;;;1.00;1.00;;;12.80;99.90;;;;;;10511040;28;20217;-81
2023/03/10 12:37:08;;;;;;;2.70;1.60;;;13.00;99.90;;;;;;10531549;28;20198;-79
2023/03/10 12:42:31;;;;;;;2.10;1.60;;;13.00;99.90;;;;;;10538032;28;20229;-79
2023/03/10 12:47:44;;;;;;;1.30;1.20;;;13.20;99.90;;;;;;10529960;28;20308;-80
2023/03/10 12:52:55;;;;;;;2.27;1.47;;;13.30;99.90;;;;;;10531539;28;20311;-79
2023/03/10 12:58:03;;;;;;;1.73;1.57;;;13.30;99.90;;;;;;10496903;28;20173;-79
2023/03/10 13:03:18;;;;;;;1.50;1.43;;;13.40;99.90;;;;;;10464862;28;20220;-79
2023/03/10 13:08:24;;;;;;;1.47;1.47;;;13.40;99.90;;;;;;10531017;28;20255;-80
2023/03/10 13:13:30;;;;;;;1.60;1.60;;;13.40;99.90;;;;;;10504025;28;20221;-80
2023/03/10 13:18:33;;;;;;;1.67;1.57;;;13.30;99.90;;;;;;10519977;28;20574;-80
2023/03/10 13:23:37;;;;;;;2.47;1.60;;;13.20;99.90;;;;;;10505232;28;20220;-80
2023/03/10 13:28:39;;;;;;;1.77;1.37;;;13.10;99.90;;;;;;10527354;28;20733;-80
2023/03/10 13:33:41;;;;;;;1.20;1.20;;;12.90;99.90;;;;;;10490311;28;20236;-80
2023/03/10 13:38:45;;;;;;;1.30;1.30;;;12.90;99.90;;;;;;10509724;28;20288;-80
2023/03/10 13:43:48;;;;;;;10.67;8.20;;;12.80;99.90;;;;;;10519653;28;20233;-80
2023/03/10 13:48:51;;;;;;;1.37;1.30;;;12.60;99.90;;;;;;10507883;28;20217;-79
2023/03/10 13:54:00;;;;;;;1.30;1.23;;;12.30;99.90;;;;;;10532175;28;20578;-79
2023/03/10 13:59:05;;;;;;;2.00;0.70;;;12.30;99.90;;;;;;10507333;28;20283;-80
2023/03/10 14:04:08;;;;;;;1.30;1.30;;;12.40;99.90;;;;;;10509124;28;20213;-80
2023/03/10 14:09:21;;;;;;;1.30;1.30;;;12.30;99.90;;;;;;10502741;28;20271;-80
2023/03/10 14:14:28;;;;;;;2.30;1.20;;;12.20;99.90;;;;;;10531604;28;20220;-80
2023/03/10 14:20:03;;;;;;;1.40;1.40;;;12.10;99.90;;;;;;10521997;28;20197;-79
2023/03/10 14:25:14;;;;;;;1.27;1.27;;;12.00;99.90;;;;;;10496681;28;20248;-79
2023/03/10 14:30:25;;;;;;;1.70;1.60;;;12.00;99.90;;;;;;10521510;28;20659;-79
2023/03/10 14:35:29;;;;;;;1.90;1.80;;;12.00;99.90;;;;;;10546537;28;20213;-79
2023/03/10 14:40:38;;;;;;;2.20;2.10;;;11.90;99.90;;;;;;10521512;28;20734;-81
2023/03/10 14:45:55;;;;;;;1.90;1.80;;;11.80;99.90;;;;;;10597834;22;20298;-87
2023/03/10 14:51:19;;;;;;;1.60;1.60;;;11.80;99.90;;;;;;10469443;28;20291;-85
2023/03/10 15:07:53;;;;;;;2.90;1.93;;;11.80;99.90;;;;;;10460809;28;20235;-85
2023/03/10 15:13:41;;;;;;;1.20;1.20;;;11.60;99.90;;;;;;10492360;28;20777;-87
2023/03/10 15:18:51;;;;;;;1.73;1.63;;;11.50;99.90;;;;;;10457803;28;20205;-88
2023/03/10 15:24:17;;;;;;;1.67;1.60;;;11.40;99.90;;;;;;10438808;28;20214;-85
2023/03/10 15:30:23;;;;;;;1.37;1.37;;;11.30;99.90;;;;;;10438581;28;20221;-87
2023/03/10 15:35:34;;;;;;;1.37;1.37;;;11.20;99.90;;;;;;10416384;28;20231;-85
2023/03/10 15:40:45;;;;;;;1.50;1.50;;;11.10;99.90;;;;;;10435580;28;20218;-84
2023/03/10 15:45:56;;;;;;;1.30;1.30;;;11.10;99.90;;;;;;10458151;28;20316;-86
2023/03/10 15:51:21;;;;;;;1.70;1.47;;;11.20;99.90;;;;;;10422115;28;20301;-86
2023/03/10 15:56:32;;;;;;;1.87;1.70;;;11.20;99.90;;;;;;10491409;28;20201;-86
2023/03/10 16:01:37;;;;;;;5.70;1.93;;;11.20;99.90;;;;;;10485439;28;20285;-87
2023/03/10 16:06:44;;;;;;;1.90;1.60;;;11.20;99.90;;;;;;10488599;28;20297;-84
2023/03/10 16:11:52;;;;;;;3.10;1.77;;;11.10;99.90;;;;;;10431468;28;20247;-85
2023/03/10 16:17:27;;;;;;;8.07;4.10;;;11.10;99.90;;;;;;10461683;28;20255;-84
2023/03/10 16:22:41;;;;;;;2.57;2.37;;;11.10;99.90;;;;;;10468190;28;20228;-85
2023/03/10 16:28:01;;;;;;;7.80;2.07;;;11.20;99.90;;;;;;10478170;28;20338;-86
2023/03/10 16:33:59;;;;;;;3.17;1.90;;;11.20;99.90;;;;;;10469511;28;20693;-86
2023/03/10 16:39:11;;;;;;;2.90;1.70;;;11.00;99.90;;;;;;10436734;28;20201;-86
2023/03/10 16:44:18;;;;;;;2.20;1.80;;;11.00;99.90;;;;;;10425696;28;20222;-85
2023/03/10 16:49:36;;;;;;;15.13;10.10;;;11.00;99.90;;;;;;10456281;28;20221;-88
2023/03/10 16:55:00;;;;;;;3.23;2.20;;;10.70;99.90;;;;;;10463122;28;20255;-86
2023/03/10 17:00:12;;;;;;;3.37;2.27;;;10.50;99.90;;;;;;10439529;28;20221;-84
2023/03/10 17:05:31;;;;;;;3.03;2.20;;;10.30;99.90;;;;;;10466219;28;20228;-87
2023/03/10 17:10:37;;;;;;;3.67;2.00;;;10.10;99.90;;;;;;10469052;28;20240;-85
2023/03/10 17:15:41;;;;;;;6.37;2.53;;;10.00;99.90;;;;;;10432048;28;20284;-84
2023/03/10 17:21:32;;;;;;;5.17;2.50;;;9.90;99.90;;;;;;10428382;28;20209;-86
2023/03/10 17:27:22;;;;;;;3.80;2.60;;;9.90;99.90;;;;;;10351179;28;20309;-84
2023/03/10 17:38:32;;;;;;;3.00;2.47;;;9.70;99.90;;;;;;10179099;29;20206;-86
2023/03/10 17:49:32;;;;;;;4.40;2.37;;;9.60;99.90;;;;;;10453228;28;20272;-87
2023/03/10 17:55:13;;;;;;;4.30;2.63;;;9.60;99.50;;;;;;10467735;28;20224;-88
2023/03/10 18:01:32;;;;;;;6.30;3.00;;;9.50;99.90;;;;;;10465448;28;20211;-87
2023/03/10 18:06:50;;;;;;;4.00;2.53;;;9.50;99.90;;;;;;10484788;28;20222;-85
2023/03/10 18:12:22;;;;;;;2.47;2.27;;;9.60;99.90;;;;;;10436936;28;20322;-85
2023/03/10 18:23:19;;;;;;;3.03;2.47;;;9.70;99.90;;;;;;10518773;22;20728;-84
2023/03/10 18:29:22;;;;;;;3.00;1.93;;;9.70;99.40;;;;;;10507919;28;20694;-84
2023/03/10 18:35:19;;;;;;;3.97;2.30;;;9.70;98.20;;;;;;10515980;28;20229;-86
2023/03/10 18:40:50;;;;;;;3.70;2.27;;;9.80;97.90;;;;;;10507941;28;20196;-89
2023/03/10 18:46:16;;;;;;;2.70;2.50;;;9.70;97.90;;;;;;10508000;28;20721;-86
2023/03/10 18:51:23;;;;;;;2.40;2.30;;;9.60;99.90;;;;;;10523400;28;20216;-83
2023/03/10 18:56:58;;;;;;;2.20;2.10;;;9.60;99.90;;;;;;10509627;28;20254;-85
2023/03/10 19:02:22;;;;;;;2.87;2.67;;;9.50;99.90;;;;;;10501566;28;20218;-86
2023/03/10 20:10:27;;;;;;;3.50;2.60;;;8.80;99.50;;;;;;10652279;22;20228;-85
2023/03/10 20:26:38;;;;;;;2.53;2.43;;;8.50;99.90;;;;;;10546100;22;20238;-85
2023/03/10 20:31:40;;;;;;;2.40;2.30;;;8.30;98.70;;;;;;10495402;28;20323;-82
2023/03/10 20:36:43;;;;;;;2.17;2.07;;;8.20;97.70;;;;;;10460217;28;20201;-84
2023/03/10 20:41:50;;;;;;;2.50;2.40;;;8.10;98.30;;;;;;10475418;28;20590;-81
2023/03/10 20:46:54;;;;;;;2.93;2.73;;;8.10;98.60;;;;;;10485919;28;20315;-82
2023/03/10 20:51:56;;;;;;;4.40;2.50;;;8.10;98.80;;;;;;10468811;28;20227;-81
2023/03/10 20:57:00;;;;;;;2.20;2.10;;;8.10;99.50;;;;;;10452262;28;20681;-84
2023/03/10 21:02:02;;;;;;;2.30;2.20;;;8.20;98.80;;;;;;10463336;28;20227;-82
2023/03/10 21:07:04;;;;;;;2.80;2.70;;;8.00;97.80;;;;;;10487749;28;20229;-83
2023/03/10 21:12:08;;;;;;;2.30;2.20;;;7.80;98.30;;;;;;10494072;28;20209;-82
2023/03/10 21:17:11;;;;;;;2.57;2.47;;;7.70;96.80;;;;;;10493190;28;20197;-80
2023/03/10 21:22:13;;;;;;;2.60;2.40;;;7.60;98.50;;;;;;10476133;28;20217;-79
2023/03/10 21:27:16;;;;;;;3.40;3.10;;;7.50;98.50;;;;;;10475720;28;20627;-82
2023/03/10 21:32:19;;;;;;;2.70;2.57;;;7.50;97.80;;;;;;10493106;28;20230;-81
2023/03/10 21:37:21;;;;;;;2.90;2.80;;;7.50;97.40;;;;;;10487872;28;20189;-84
2023/03/10 21:42:24;;;;;;;2.33;2.23;;;7.50;96.60;;;;;;10473486;28;20529;-83
2023/03/10 21:47:26;;;;;;;4.07;3.77;;;7.50;95.40;;;;;;10492819;28;20280;-83
2023/03/10 21:52:28;;;;;;;2.30;2.20;;;7.50;96.20;;;;;;10500440;28;20625;-83
2023/03/10 21:57:32;;;;;;;2.80;2.60;;;7.40;95.80;;;;;;10484953;28;20198;-84
2023/03/10 22:02:35;;;;;;;2.87;2.67;;;7.50;95.30;;;;;;10472545;28;20283;-82
2023/03/10 22:07:38;;;;;;;2.73;2.53;;;7.40;95.70;;;;;;10504814;28;20259;-81
2023/03/10 22:12:41;;;;;;;2.90;2.70;;;7.50;95.80;;;;;;10469586;28;20245;-80
2023/03/10 22:17:43;;;;;;;2.47;2.37;;;7.50;96.10;;;;;;10504860;28;20656;-77
2023/03/10 22:22:46;;;;;;;2.10;2.00;;;7.50;95.70;;;;;;10462017;28;1062919;-78
2023/03/10 22:27:51;;;;;;;2.50;2.40;;;7.60;94.90;;;;;;10471055;28;20242;-80
2023/03/10 22:32:54;;;;;;;2.40;2.30;;;7.60;95.50;;;;;;10488832;28;20546;-83
2023/03/10 22:37:56;;;;;;;2.43;2.33;;;7.50;95.10;;;;;;10505093;28;20681;-80
2023/03/10 22:42:59;;;;;;;2.40;2.30;;;7.40;94.60;;;;;;10482829;28;20440;-80
2023/03/10 22:48:05;;;;;;;2.47;2.37;;;7.30;95.40;;;;;;10494056;28;20562;-84
2023/03/10 22:53:08;;;;;;;2.70;2.60;;;7.30;94.30;;;;;;10521591;28;20271;-80
2023/03/10 22:58:13;;;;;;;2.53;2.33;;;7.30;94.30;;;;;;10502808;28;20225;-83
2023/03/10 23:03:15;;;;;;;2.80;2.70;;;7.30;94.60;;;;;;10500897;28;20555;-79
2023/03/10 23:08:17;;;;;;;2.90;2.70;;;7.30;93.40;;;;;;10505589;28;20223;-80
2023/03/10 23:13:21;;;;;;;3.10;2.80;;;7.20;94.00;;;;;;10501290;28;20229;-83
2023/03/10 23:18:23;;;;;;;61.83;28.57;;;7.20;93.20;;;;;;10487302;28;20193;-84
2023/03/10 23:23:25;;;;;;;4.23;3.87;;;7.30;94.30;;;;;;10490318;28;20381;-84
2023/03/10 23:28:31;;;;;;;2.50;2.40;;;7.30;94.70;;;;;;10502555;28;20218;-78
2023/03/10 23:33:33;;;;;;;2.47;2.37;;;7.30;94.50;;;;;;10501423;28;20222;-83
2023/03/10 23:38:35;;;;;;;2.40;2.30;;;7.30;93.90;;;;;;10494111;28;20194;-83
2023/03/10 23:43:39;;;;;;;2.20;2.00;;;7.30;93.50;;;;;;10469417;28;20217;-80
2023/03/10 23:48:42;;;;;;;2.30;2.20;;;7.30;94.20;;;;;;10504092;28;20241;-80
2023/03/10 23:53:45;;;;;;;2.00;1.90;;;7.30;93.40;;;;;;10468553;28;20279;-80
2023/03/10 23:58:48;;;;;;;2.03;1.93;;;7.30;91.00;;;;;;10463093;28;20221;-80
